createdAt,value
2019-02-14T00:02:14.517Z,18.50
2019-02-14T00:04:46.264Z,19.30
2019-02-14T00:07:17.870Z,30.47
2019-02-14T00:09:49.547Z,26.40
2019-02-14T00:12:21.216Z,79.23
2019-02-14T00:14:54.018Z,92.67
2019-02-14T00:17:25.983Z,54.37
2019-02-14T00:19:57.864Z,48.07
2019-02-14T00:22:29.770Z,36.70
2019-02-14T00:25:01.554Z,22.87
2019-02-14T00:27:34.198Z,20.67
2019-02-14T00:30:05.986Z,28.83
2019-02-14T00:32:38.060Z,40.47
2019-02-14T00:35:09.759Z,34.90
2019-02-14T00:37:42.414Z,20.77
2019-02-14T00:40:14.076Z,20.40
2019-02-14T00:42:45.668Z,19.97
2019-02-14T00:45:17.277Z,20.70
2019-02-14T00:47:48.938Z,20.53
2019-02-14T00:50:20.764Z,20.60
2019-02-14T00:52:52.415Z,18.13
2019-02-14T00:55:24.193Z,18.67
2019-02-14T00:57:55.986Z,16.70
2019-02-14T01:00:27.868Z,16.53
2019-02-14T01:02:59.778Z,16.90
2019-02-14T01:05:33.708Z,17.73
2019-02-14T01:08:04.672Z,17.03
2019-02-14T01:10:36.347Z,17.17
2019-02-14T01:13:08.009Z,18.03
2019-02-14T01:15:40.062Z,18.80
2019-02-14T01:18:11.674Z,18.47
2019-02-14T01:20:43.364Z,20.47
2019-02-14T01:23:15.013Z,19.63
2019-02-14T01:25:46.695Z,18.70
2019-02-14T01:28:18.273Z,18.40
2019-02-14T01:30:49.969Z,18.17
2019-02-14T01:33:21.650Z,16.70
2019-02-14T01:35:53.270Z,16.00
2019-02-14T01:38:24.870Z,17.00
2019-02-14T01:40:56.658Z,17.00
2019-02-14T01:43:28.274Z,17.07
2019-02-14T01:46:00.038Z,17.67
2019-02-14T01:48:31.709Z,16.90
2019-02-14T01:51:03.414Z,19.20
2019-02-14T01:53:35.098Z,18.07
2019-02-14T01:56:06.710Z,18.87
2019-02-14T01:58:38.380Z,18.00
2019-02-14T02:01:10.977Z,17.50
2019-02-14T02:03:42.624Z,17.43
2019-02-14T02:06:14.303Z,17.13
2019-02-14T02:08:45.960Z,18.27
2019-02-14T02:11:17.645Z,18.33
2019-02-14T02:13:49.315Z,16.67
2019-02-14T02:16:21.101Z,16.80
2019-02-14T02:18:52.756Z,16.73
2019-02-14T02:21:24.420Z,16.50
2019-02-14T02:23:56.082Z,19.23
2019-02-14T02:26:27.910Z,18.13
2019-02-14T02:28:59.798Z,16.10
2019-02-14T02:31:31.488Z,17.43
2019-02-14T02:34:03.079Z,19.27
2019-02-14T02:36:34.694Z,16.93
2019-02-14T02:39:08.129Z,16.47
2019-02-14T02:41:39.906Z,18.63
2019-02-14T02:44:11.512Z,17.60
2019-02-14T02:46:43.196Z,21.67
2019-02-14T02:49:14.846Z,22.10
2019-02-14T02:51:46.432Z,21.80
2019-02-14T02:54:18.031Z,20.13
2019-02-14T02:56:49.654Z,19.37
2019-02-14T02:59:22.218Z,17.50
2019-02-14T03:01:53.800Z,17.00
2019-02-14T03:04:25.560Z,16.00
2019-02-14T03:06:57.179Z,15.53
2019-02-14T03:09:29.029Z,16.80
2019-02-14T03:12:01.006Z,15.70
2019-02-14T03:14:33.224Z,16.00
2019-02-14T03:17:04.917Z,16.27
2019-02-14T03:19:36.572Z,15.13
2019-02-14T03:22:08.253Z,15.77
2019-02-14T03:24:39.872Z,14.83
2019-02-14T03:27:11.539Z,16.83
2019-02-14T03:29:43.199Z,14.80
2019-02-14T03:32:15.193Z,15.63
2019-02-14T03:34:46.852Z,16.40
2019-02-14T03:37:18.466Z,16.30
2019-02-14T03:39:50.123Z,15.47
2019-02-14T03:42:21.850Z,14.90
2019-02-14T03:44:53.559Z,17.33
2019-02-14T03:47:25.183Z,17.43
2019-02-14T03:49:57.009Z,16.03
2019-02-14T03:52:28.614Z,17.40
2019-02-14T03:55:00.233Z,16.37
2019-02-14T03:57:31.892Z,17.03
2019-02-14T04:00:03.500Z,16.70
2019-02-14T04:02:36.000Z,17.50
2019-02-14T04:05:07.763Z,16.67
2019-02-14T04:07:39.444Z,17.40
2019-02-14T04:10:12.058Z,18.00
2019-02-14T04:12:43.746Z,19.27
2019-02-14T04:15:15.912Z,17.23
2019-02-14T04:17:47.492Z,16.47
2019-02-14T04:20:19.088Z,17.07
2019-02-14T04:22:50.871Z,18.07
2019-02-14T04:25:22.470Z,18.53
2019-02-14T04:27:54.077Z,16.27
2019-02-14T04:30:26.066Z,17.30
2019-02-14T04:32:57.976Z,16.93
2019-02-14T04:35:29.816Z,16.27
2019-02-14T04:38:01.432Z,17.10
2019-02-14T04:40:33.813Z,17.47
2019-02-14T04:43:05.566Z,17.83
2019-02-14T04:45:37.231Z,16.67
2019-02-14T04:48:08.819Z,18.83
2019-02-14T04:50:41.511Z,19.00
2019-02-14T04:53:13.119Z,18.63
2019-02-14T04:55:44.798Z,18.70
2019-02-14T04:58:16.411Z,18.87
2019-02-14T05:00:48.075Z,20.33
2019-02-14T05:03:19.697Z,18.97
2019-02-14T05:05:51.284Z,20.30
2019-02-14T05:08:22.899Z,23.97
2019-02-14T05:10:54.492Z,19.97
2019-02-14T05:13:26.220Z,21.73
2019-02-14T05:15:57.920Z,24.07
2019-02-14T05:18:29.854Z,22.77
2019-02-14T05:21:01.446Z,29.83
2019-02-14T05:23:33.072Z,23.17
2019-02-14T05:26:04.849Z,21.77
2019-02-14T05:28:36.527Z,26.37
2019-02-14T05:31:08.110Z,27.83
2019-02-14T05:33:39.739Z,22.90
2019-02-14T05:36:11.334Z,23.97
2019-02-14T05:38:43.026Z,22.20
2019-02-14T05:41:15.628Z,22.83
2019-02-14T05:43:47.234Z,22.67
2019-02-14T05:46:18.831Z,22.20
2019-02-14T05:48:50.518Z,23.23
2019-02-14T05:51:22.114Z,21.50
2019-02-14T05:53:53.736Z,22.93
2019-02-14T05:56:25.338Z,23.70
2019-02-14T05:58:57.083Z,22.50
2019-02-14T06:01:29.019Z,23.77
2019-02-14T06:04:00.965Z,22.20
2019-02-14T06:06:32.869Z,22.10
2019-02-14T06:09:05.934Z,22.70
2019-02-14T06:11:37.525Z,21.37
2019-02-14T06:14:09.145Z,23.97
2019-02-14T06:16:41.712Z,21.47
2019-02-14T06:19:13.322Z,21.67
2019-02-14T06:21:44.924Z,22.10
2019-02-14T06:24:16.535Z,22.50
2019-02-14T06:26:48.201Z,24.67
2019-02-14T06:29:20.726Z,24.93
2019-02-14T06:31:52.405Z,21.93
2019-02-14T06:34:25.008Z,24.47
2019-02-14T06:36:56.668Z,24.43
2019-02-14T06:39:28.344Z,25.40
2019-02-14T06:42:03.974Z,32.20
2019-02-14T06:44:42.410Z,34.93
2019-02-14T06:47:17.050Z,32.97
2019-02-14T06:49:50.796Z,30.53
2019-02-14T06:52:24.328Z,29.53
2019-02-14T06:54:56.697Z,28.47
2019-02-14T06:57:28.924Z,25.03
2019-02-14T07:00:01.000Z,22.67
2019-02-14T07:02:32.931Z,25.43
2019-02-14T07:05:04.552Z,26.37
2019-02-14T07:07:40.170Z,27.40
2019-02-14T07:10:15.082Z,25.07
2019-02-14T07:12:47.684Z,28.03
2019-02-14T07:15:19.786Z,25.47
2019-02-14T07:17:51.966Z,24.60
2019-02-14T07:20:24.025Z,26.00
2019-02-14T07:22:55.980Z,26.63
2019-02-14T07:25:28.686Z,27.60
2019-02-14T07:28:00.363Z,28.93
2019-02-14T07:30:33.795Z,26.07
2019-02-14T07:33:05.953Z,24.03
2019-02-14T07:35:37.625Z,23.77
2019-02-14T07:38:09.282Z,24.17
2019-02-14T07:40:41.000Z,24.40
2019-02-14T07:43:12.618Z,24.60
2019-02-14T07:45:44.327Z,27.70
2019-02-14T07:48:15.928Z,30.13
2019-02-14T07:50:47.619Z,25.20
2019-02-14T07:53:19.286Z,22.60
2019-02-14T07:55:50.983Z,23.33
2019-02-14T07:58:22.572Z,20.27
2019-02-14T08:00:54.187Z,19.40
2019-02-14T08:03:25.778Z,20.47
2019-02-14T08:05:57.398Z,21.43
2019-02-14T08:08:29.316Z,22.43
2019-02-14T08:11:01.193Z,21.97
2019-02-14T08:13:33.062Z,20.43
2019-02-14T08:16:04.719Z,23.70
2019-02-14T08:18:36.392Z,23.33
2019-02-14T08:21:09.009Z,23.20
2019-02-14T08:23:40.670Z,22.50
2019-02-14T08:26:12.280Z,25.37
2019-02-14T08:28:43.947Z,28.40
2019-02-14T08:31:15.566Z,23.67
2019-02-14T08:33:47.250Z,20.67
2019-02-14T08:36:18.924Z,27.27
2019-02-14T08:38:50.532Z,26.57
2019-02-14T08:41:22.116Z,23.53
2019-02-14T08:43:53.779Z,26.90
2019-02-14T08:46:25.411Z,21.87
2019-02-14T08:48:57.171Z,24.37
2019-02-14T08:51:28.777Z,25.10
2019-02-14T08:54:00.434Z,26.40
2019-02-14T08:56:32.116Z,23.77
2019-02-14T08:59:03.721Z,25.53
2019-02-14T09:01:35.403Z,21.47
2019-02-14T09:04:07.009Z,24.17
2019-02-14T09:06:38.630Z,24.33
2019-02-14T09:09:10.249Z,19.33
2019-02-14T09:11:41.979Z,21.70
2019-02-14T09:14:13.585Z,24.60
2019-02-14T09:16:45.199Z,20.80
2019-02-14T09:19:16.856Z,20.60
2019-02-14T09:21:48.463Z,23.20
2019-02-14T09:24:20.067Z,25.70
2019-02-14T09:26:51.704Z,45.23
2019-02-14T09:29:23.431Z,35.60
2019-02-14T09:31:55.033Z,33.03
2019-02-14T09:34:26.954Z,19.63
2019-02-14T09:36:58.641Z,19.77
2019-02-14T09:39:30.249Z,18.47
2019-02-14T09:42:01.938Z,20.53
2019-02-14T09:44:33.518Z,19.30
2019-02-14T09:47:05.354Z,17.67
2019-02-14T09:49:37.023Z,15.40
2019-02-14T09:52:08.646Z,17.20
2019-02-14T09:54:40.247Z,16.47
2019-02-14T09:57:11.864Z,17.87
2019-02-14T09:59:43.531Z,18.93
2019-02-14T10:02:15.133Z,14.63
2019-02-14T10:04:46.723Z,15.27
2019-02-14T10:07:18.413Z,15.97
2019-02-14T10:09:50.007Z,17.03
2019-02-14T10:12:21.710Z,23.47
2019-02-14T10:14:53.379Z,19.77
2019-02-14T10:17:25.004Z,15.63
2019-02-14T10:19:56.919Z,45.73
2019-02-14T10:22:28.539Z,25.40
2019-02-14T10:25:00.334Z,28.00
2019-02-14T10:27:31.997Z,17.80
2019-02-14T10:30:03.839Z,18.77
2019-02-14T10:32:35.582Z,26.80
2019-02-14T10:35:07.311Z,17.33
2019-02-14T10:37:38.994Z,15.57
2019-02-14T10:40:11.687Z,17.70
2019-02-14T10:42:43.370Z,16.03
2019-02-14T10:45:16.247Z,14.27
2019-02-14T10:47:47.859Z,15.33
2019-02-14T10:50:19.516Z,14.40
2019-02-14T10:52:51.157Z,14.90
2019-02-14T10:55:22.760Z,12.87
2019-02-14T10:57:54.370Z,18.87
2019-02-14T11:00:26.286Z,15.30
2019-02-14T11:02:58.118Z,16.93
2019-02-14T11:05:29.952Z,16.60
2019-02-14T11:08:01.635Z,12.30
2019-02-14T11:10:33.283Z,15.57
2019-02-14T11:13:04.986Z,16.33
2019-02-14T11:15:38.559Z,13.77
2019-02-14T11:18:13.980Z,14.33
2019-02-14T11:20:49.613Z,12.10
2019-02-14T11:23:23.306Z,12.97
2019-02-14T11:25:59.345Z,13.20
2019-02-14T11:28:43.867Z,12.47
2019-02-14T11:31:19.637Z,34.80
2019-02-14T11:33:54.768Z,15.77
2019-02-14T11:36:28.100Z,17.77
2019-02-14T11:39:05.785Z,13.73
2019-02-14T11:41:51.511Z,14.43
2019-02-14T11:44:28.744Z,14.13
2019-02-14T11:47:07.651Z,26.70
2019-02-14T11:49:39.377Z,16.23
2019-02-14T11:52:12.453Z,13.67
2019-02-14T11:54:45.612Z,17.30
2019-02-14T11:57:18.731Z,13.30
2019-02-14T11:59:54.364Z,10.20
2019-02-14T12:02:31.738Z,11.53
2019-02-14T12:05:06.043Z,10.97
2019-02-14T12:07:38.763Z,14.07
2019-02-14T12:10:13.352Z,37.40
2019-02-14T12:12:45.119Z,13.87
2019-02-14T12:15:16.858Z,14.63
2019-02-14T12:17:48.578Z,27.67
2019-02-14T12:20:21.713Z,12.37
2019-02-14T12:22:55.409Z,13.90
2019-02-14T12:25:27.841Z,11.87
2019-02-14T12:28:00.255Z,13.13
2019-02-14T12:30:32.517Z,11.60
2019-02-14T12:33:04.386Z,16.20
2019-02-14T12:35:36.368Z,14.87
2019-02-14T12:38:07.999Z,16.30
2019-02-14T12:40:41.757Z,15.33
2019-02-14T12:43:16.937Z,12.27
2019-02-14T12:45:48.977Z,13.33
2019-02-14T12:48:20.979Z,20.80
2019-02-14T12:50:52.861Z,15.83
2019-02-14T12:53:24.670Z,23.73
2019-02-14T12:55:57.228Z,16.73
2019-02-14T12:58:29.253Z,12.97
2019-02-14T13:01:01.042Z,17.30
2019-02-14T13:03:34.457Z,20.27
2019-02-14T13:06:08.543Z,23.97
2019-02-14T13:08:41.453Z,14.30
2019-02-14T13:11:14.026Z,24.20
2019-02-14T13:13:49.975Z,30.20
2019-02-14T13:16:20.708Z,15.23
2019-02-14T13:18:52.808Z,14.30
2019-02-14T13:21:24.630Z,28.27
2019-02-14T13:23:56.238Z,33.53
2019-02-14T13:26:29.599Z,43.50
2019-02-14T13:29:03.451Z,36.40
2019-02-14T13:31:35.753Z,19.47
2019-02-14T13:34:08.543Z,17.20
2019-02-14T13:36:40.539Z,13.73
2019-02-14T13:39:12.591Z,16.33
2019-02-14T13:41:44.733Z,15.17
2019-02-14T13:44:16.731Z,18.13
2019-02-14T13:46:48.422Z,19.87
2019-02-14T13:49:21.421Z,20.10
2019-02-14T13:51:53.532Z,75.50
2019-02-14T13:54:25.125Z,22.87
2019-02-14T13:56:57.176Z,26.03
2019-02-14T13:59:32.179Z,16.73
2019-02-14T14:02:04.618Z,17.40
2019-02-14T14:04:37.122Z,20.57
2019-02-14T14:07:09.197Z,22.13
2019-02-14T14:09:41.646Z,25.40
2019-02-14T14:12:13.289Z,21.73
2019-02-14T14:14:45.079Z,18.17
2019-02-14T14:17:19.395Z,22.10
2019-02-14T14:19:51.867Z,16.67
2019-02-14T14:22:23.920Z,23.90
2019-02-14T14:24:57.931Z,29.07
2019-02-14T14:27:31.637Z,19.50
2019-02-14T14:30:03.701Z,20.53
2019-02-14T14:32:36.315Z,18.73
2019-02-14T14:35:08.412Z,53.37
2019-02-14T14:37:42.108Z,66.60
2019-02-14T14:40:15.375Z,98.10
2019-02-14T14:43:06.589Z,39.03
2019-02-14T14:46:07.047Z,36.63
2019-02-14T14:48:43.494Z,31.63
2019-02-14T14:51:15.457Z,21.07
2019-02-14T14:53:47.929Z,42.60
2019-02-14T14:56:19.715Z,97.63
2019-02-14T14:58:51.319Z,32.47
2019-02-14T15:01:24.598Z,22.23
2019-02-14T15:03:57.204Z,38.37
2019-02-14T15:06:29.461Z,33.33
2019-02-14T15:09:01.551Z,71.20
2019-02-14T15:11:35.267Z,51.57
2019-02-14T15:14:07.400Z,37.83
2019-02-14T15:16:39.844Z,28.20
2019-02-14T15:19:12.942Z,33.93
2019-02-14T15:21:46.002Z,27.67
2019-02-14T15:24:19.521Z,27.50
2019-02-14T15:26:51.917Z,36.73
2019-02-14T15:29:23.819Z,45.37
2019-02-14T15:31:55.567Z,27.57
2019-02-14T15:34:27.697Z,22.47
2019-02-14T15:36:59.927Z,23.07
2019-02-14T15:39:31.826Z,20.83
2019-02-14T15:42:03.413Z,24.00
2019-02-14T15:44:37.109Z,33.10
2019-02-14T15:47:09.431Z,33.97
2019-02-14T15:49:41.449Z,25.27
2019-02-14T15:52:13.390Z,32.67
2019-02-14T15:54:46.823Z,32.27
2019-02-14T15:57:20.442Z,38.50
2019-02-14T15:59:52.500Z,42.10
2019-02-14T16:02:24.747Z,32.67
2019-02-14T16:04:56.606Z,36.93
2019-02-14T16:07:30.104Z,54.33
2019-02-14T16:10:05.873Z,61.13
2019-02-14T16:12:41.064Z,45.63
2019-02-14T16:15:13.637Z,28.03
2019-02-14T16:17:46.397Z,41.73
2019-02-14T16:20:19.845Z,41.00
2019-02-14T16:22:52.194Z,28.03
2019-02-14T16:25:25.934Z,30.90
2019-02-14T16:27:59.206Z,38.27
2019-02-14T16:30:33.303Z,39.20
2019-02-14T16:33:05.314Z,38.93
2019-02-14T16:35:37.368Z,43.07
2019-02-14T16:38:11.300Z,51.50
2019-02-14T16:40:43.446Z,32.07
2019-02-14T16:43:15.994Z,29.00
2019-02-14T16:45:47.705Z,34.07
2019-02-14T16:48:21.020Z,32.93
2019-02-14T16:50:53.118Z,37.03
2019-02-14T16:53:25.615Z,34.93
2019-02-14T16:56:02.165Z,41.60
2019-02-14T16:58:33.363Z,32.40
2019-02-14T17:01:05.249Z,38.67
2019-02-14T17:03:37.190Z,30.43
2019-02-14T17:06:09.941Z,38.10
2019-02-14T17:08:42.673Z,39.17
2019-02-14T17:11:16.132Z,28.73
2019-02-14T17:13:48.426Z,43.50
2019-02-14T17:16:21.783Z,56.17
2019-02-14T17:18:55.459Z,68.07
2019-02-14T17:21:28.778Z,38.40
2019-02-14T17:24:01.357Z,36.07
2019-02-14T17:26:33.984Z,34.07
2019-02-14T17:29:06.913Z,39.50
2019-02-14T17:31:39.714Z,46.10
2019-02-14T17:34:11.852Z,55.50
2019-02-14T17:36:47.428Z,48.83
2019-02-14T17:39:21.308Z,61.17
2019-02-14T17:41:54.840Z,69.10
2019-02-14T17:44:26.725Z,91.50
2019-02-14T17:46:59.886Z,184.57
2019-02-14T17:49:32.066Z,85.07
2019-02-14T17:52:05.017Z,41.63
2019-02-14T17:54:36.813Z,44.87
2019-02-14T17:57:08.510Z,31.90
2019-02-14T17:59:42.179Z,93.13
2019-02-14T18:02:15.483Z,109.83
2019-02-14T18:04:47.455Z,44.27
2019-02-14T18:07:20.669Z,36.07
2019-02-14T18:09:52.863Z,35.17
2019-02-14T18:12:24.940Z,43.17
2019-02-14T18:14:57.084Z,44.13
2019-02-14T18:17:28.876Z,30.23
2019-02-14T18:20:01.767Z,35.30
2019-02-14T18:22:34.047Z,32.33
2019-02-14T18:25:06.651Z,35.33
2019-02-14T18:27:38.350Z,35.77
2019-02-14T18:30:10.527Z,32.83
2019-02-14T18:32:42.299Z,33.67
2019-02-14T18:35:15.041Z,33.00
2019-02-14T18:37:46.739Z,34.20
2019-02-14T18:40:18.439Z,31.50
2019-02-14T18:42:50.254Z,70.37
2019-02-14T18:45:21.965Z,47.33
2019-02-14T18:47:53.666Z,33.67
2019-02-14T18:50:25.370Z,29.47
2019-02-14T18:52:57.034Z,35.47
2019-02-14T18:55:29.158Z,36.33
2019-02-14T18:58:00.927Z,42.33
2019-02-14T19:00:32.910Z,31.73
2019-02-14T19:03:04.595Z,33.27
2019-02-14T19:05:36.272Z,35.70
2019-02-14T19:08:07.954Z,34.80
2019-02-14T19:10:40.787Z,33.47
2019-02-14T19:13:12.473Z,33.73
2019-02-14T19:15:44.077Z,32.70
2019-02-14T19:18:15.857Z,32.63
2019-02-14T19:20:47.591Z,33.97
2019-02-14T19:23:24.064Z,31.80
2019-02-14T19:25:52.639Z,29.27
2019-02-14T19:28:24.272Z,32.00
2019-02-14T19:30:56.152Z,30.53
2019-02-14T19:33:27.886Z,38.23
2019-02-14T19:35:59.697Z,42.50
2019-02-14T19:38:31.436Z,39.27
2019-02-14T19:41:03.198Z,39.60
2019-02-14T19:43:34.908Z,40.27
2019-02-14T19:46:06.652Z,35.77
2019-02-14T19:48:38.491Z,36.30
2019-02-14T19:51:10.257Z,41.30
2019-02-14T19:53:43.429Z,37.77
2019-02-14T19:56:16.636Z,44.67
2019-02-14T19:58:48.703Z,42.80
2019-02-14T20:01:20.401Z,41.13
2019-02-14T20:03:52.388Z,40.23
2019-02-14T20:06:24.283Z,37.93
2019-02-14T20:08:56.350Z,31.80
2019-02-14T20:11:36.114Z,31.00
2019-02-14T20:14:01.789Z,38.37
2019-02-14T20:16:33.531Z,44.03
2019-02-14T20:19:05.548Z,34.03
2019-02-14T20:21:37.383Z,32.80
2019-02-14T20:24:09.099Z,45.17
2019-02-14T20:26:40.800Z,35.60
2019-02-14T20:29:13.816Z,28.70
2019-02-14T20:31:46.506Z,28.33
2019-02-14T20:34:18.554Z,30.10
2019-02-14T20:36:51.979Z,31.93
2019-02-14T20:39:24.679Z,26.27
2019-02-14T20:41:56.532Z,26.27
2019-02-14T20:44:28.257Z,33.23
2019-02-14T20:47:00.036Z,31.60
2019-02-14T20:49:32.637Z,28.10
2019-02-14T20:52:04.700Z,28.47
2019-02-14T20:54:36.414Z,31.50
2019-02-14T20:57:08.106Z,41.27
2019-02-14T20:59:40.028Z,39.77
2019-02-14T21:02:12.726Z,46.13
2019-02-14T21:04:44.490Z,33.33
2019-02-14T21:07:16.538Z,32.40
2019-02-14T21:09:49.836Z,32.50
2019-02-14T21:12:22.942Z,31.40
2019-02-14T21:14:54.651Z,37.83
2019-02-14T21:17:28.875Z,38.50
2019-02-14T21:20:01.413Z,45.47
2019-02-14T21:22:34.600Z,43.73
2019-02-14T21:25:06.478Z,40.63
2019-02-14T21:27:38.446Z,29.33
2019-02-14T21:30:10.678Z,25.93
2019-02-14T21:32:42.389Z,27.43
2019-02-14T21:35:14.469Z,33.30
2019-02-14T21:37:47.234Z,26.93
2019-02-14T21:40:19.008Z,26.90
2019-02-14T21:42:50.764Z,28.07
2019-02-14T21:45:22.507Z,26.70
2019-02-14T21:47:54.269Z,25.43
2019-02-14T21:50:25.976Z,27.37
2019-02-14T21:52:57.771Z,22.83
2019-02-14T21:55:29.744Z,23.50
2019-02-14T21:58:04.643Z,24.20
2019-02-14T22:00:34.972Z,25.90
2019-02-14T22:03:06.973Z,29.77
2019-02-14T22:05:39.051Z,33.97
2019-02-14T22:08:10.830Z,39.77
2019-02-14T22:10:42.526Z,50.00
2019-02-14T22:13:14.224Z,52.93
2019-02-14T22:15:46.034Z,54.03
2019-02-14T22:18:17.796Z,49.77
2019-02-14T22:20:49.466Z,52.43
2019-02-14T22:23:21.541Z,52.40
2019-02-14T22:25:53.130Z,51.00
2019-02-14T22:28:24.795Z,45.30
2019-02-14T22:30:56.481Z,42.53
2019-02-14T22:33:28.080Z,47.53
2019-02-14T22:35:59.957Z,45.03
2019-02-14T22:38:31.568Z,42.37
2019-02-14T22:41:03.181Z,35.93
2019-02-14T22:43:34.811Z,33.93
2019-02-14T22:46:06.535Z,30.27
2019-02-14T22:48:38.649Z,26.73
2019-02-14T22:51:10.319Z,26.97
2019-02-14T22:53:43.738Z,26.67
2019-02-14T22:56:15.494Z,25.00
2019-02-14T22:58:47.104Z,23.53
2019-02-14T23:01:19.080Z,23.40
2019-02-14T23:03:51.057Z,25.67
2019-02-14T23:06:22.746Z,24.90
2019-02-14T23:08:54.772Z,24.33
2019-02-14T23:11:26.524Z,24.80
2019-02-14T23:13:58.185Z,25.10
2019-02-14T23:16:30.165Z,24.17
2019-02-14T23:19:02.112Z,26.20
2019-02-14T23:21:34.025Z,26.63
2019-02-14T23:24:06.236Z,25.60
2019-02-14T23:26:38.306Z,25.60
2019-02-14T23:29:09.979Z,27.50
2019-02-14T23:31:41.590Z,26.83
2019-02-14T23:34:13.266Z,27.43
2019-02-14T23:36:45.249Z,26.90
2019-02-14T23:39:16.847Z,23.77
2019-02-14T23:41:48.454Z,24.03
2019-02-14T23:44:20.058Z,24.30
2019-02-14T23:46:51.738Z,24.53
2019-02-14T23:49:23.388Z,25.27
2019-02-14T23:51:55.539Z,25.97
2019-02-14T23:54:27.322Z,28.63
2019-02-14T23:56:59.242Z,25.23
2019-02-14T23:59:30.842Z,23.70
